createdAt,value
2017-02-23T00:00:21.273Z,47.41
2017-02-23T00:01:21.697Z,47.72
2017-02-23T00:02:21.730Z,47.63
2017-02-23T00:03:21.359Z,47.7
2017-02-23T00:04:21.795Z,47.7
2017-02-23T00:05:21.417Z,47.51
2017-02-23T00:06:21.834Z,47.31
2017-02-23T00:07:21.866Z,47.51
2017-02-23T00:08:21.510Z,47.41
2017-02-23T00:09:21.914Z,47.41
2017-02-23T00:10:21.941Z,47.22
2017-02-23T00:11:21.587Z,47.22
2017-02-23T00:12:22.001Z,47.22
2017-02-23T00:13:22.037Z,47.51
2017-02-23T00:14:21.667Z,47.51
2017-02-23T00:15:22.086Z,47.22
2017-02-23T00:16:22.359Z,47.22
2017-02-23T00:17:21.740Z,47.51
2017-02-23T00:18:22.157Z,47.51
2017-02-23T00:19:21.793Z,47.6
2017-02-23T00:20:22.238Z,47.51
2017-02-23T00:21:22.503Z,47.22
2017-02-23T00:22:22.280Z,47.51
2017-02-23T00:23:22.300Z,47.41
2017-02-23T00:24:21.949Z,47.7
2017-02-23T00:25:21.963Z,47.51
2017-02-23T00:26:22.231Z,47.31
2017-02-23T00:27:22.411Z,47.31
2017-02-23T00:28:22.448Z,47.6
2017-02-23T00:29:22.460Z,47.31
2017-02-23T00:30:22.497Z,47.51
2017-02-23T00:31:22.765Z,47.31
2017-02-23T00:32:22.150Z,47.7
2017-02-23T00:33:22.575Z,47.41
2017-02-23T00:34:22.203Z,47.7
2017-02-23T00:35:22.226Z,47.51
2017-02-23T00:36:22.904Z,47.51
2017-02-23T00:37:22.682Z,47.51
2017-02-23T00:38:22.707Z,47.41
2017-02-23T00:39:22.730Z,47.31
2017-02-23T00:40:22.368Z,47.31
2017-02-23T00:41:23.048Z,47.31
2017-02-23T00:42:22.821Z,47.41
2017-02-23T00:43:22.453Z,47.41
2017-02-23T00:44:22.474Z,47.12
2017-02-23T00:45:22.903Z,47.41
2017-02-23T00:46:22.532Z,47.41
2017-02-23T00:47:22.968Z,47.6
2017-02-23T00:48:22.977Z,47.51
2017-02-23T00:49:22.610Z,47.51
2017-02-23T00:50:22.638Z,47.31
2017-02-23T00:51:23.063Z,47.7
2017-02-23T00:52:23.088Z,47.6
2017-02-23T00:53:23.116Z,47.7
2017-02-23T00:54:23.144Z,47.41
2017-02-23T00:55:23.170Z,47.6
2017-02-23T00:56:22.803Z,47.31
2017-02-23T00:57:23.243Z,47.12
2017-02-23T00:58:23.259Z,47.51
2017-02-23T00:59:22.884Z,47.41
2017-02-23T01:00:23.308Z,47.6
2017-02-23T01:01:23.330Z,47.12
2017-02-23T01:02:22.966Z,47.22
2017-02-23T01:03:23.391Z,47.31
2017-02-23T01:04:23.023Z,47.31
2017-02-23T01:05:23.443Z,47.22
2017-02-23T01:06:23.085Z,47.51
2017-02-23T01:07:23.113Z,47.31
2017-02-23T01:08:23.526Z,47.31
2017-02-23T01:09:23.559Z,47.6
2017-02-23T01:10:23.184Z,47.31
2017-02-23T01:11:23.607Z,47.22
2017-02-23T01:12:23.237Z,47.41
2017-02-23T01:13:23.661Z,47.12
2017-02-23T01:14:23.690Z,47.51
2017-02-23T01:15:23.318Z,47.12
2017-02-23T01:16:23.739Z,47.51
2017-02-23T01:17:23.368Z,47.41
2017-02-23T01:18:23.425Z,47.51
2017-02-23T01:19:23.826Z,47.41
2017-02-23T01:20:23.866Z,47.31
2017-02-23T01:21:23.495Z,47.12
2017-02-23T01:22:23.907Z,47.12
2017-02-23T01:23:23.940Z,47.22
2017-02-23T01:24:23.977Z,47.51
2017-02-23T01:25:23.598Z,47.31
2017-02-23T01:26:24.015Z,47.31
2017-02-23T01:27:23.651Z,47.12
2017-02-23T01:28:23.673Z,47.7
2017-02-23T01:29:24.113Z,47.6
2017-02-23T01:30:23.734Z,47.41
2017-02-23T01:31:24.163Z,47.41
2017-02-23T01:32:24.183Z,47.19
2017-02-23T01:33:23.820Z,47.49
2017-02-23T01:34:24.245Z,47.7
2017-02-23T01:35:24.272Z,47.1
2017-02-23T01:36:23.898Z,47.12
2017-02-23T01:37:24.349Z,47.39
2017-02-23T01:38:23.953Z,47.31
2017-02-23T01:39:24.368Z,47.31
2017-02-23T01:40:24.398Z,47.12
2017-02-23T01:41:24.422Z,47.1
2017-02-23T01:42:24.451Z,47.1
2017-02-23T01:43:24.087Z,47.49
2017-02-23T01:44:24.505Z,47.58
2017-02-23T01:45:24.532Z,47.49
2017-02-23T01:46:24.162Z,47.1
2017-02-23T01:47:24.191Z,47.29
2017-02-23T01:48:24.220Z,47.39
2017-02-23T01:49:24.240Z,47.67
2017-02-23T01:50:24.668Z,47.29
2017-02-23T01:51:24.698Z,47.41
2017-02-23T01:52:24.330Z,47.49
2017-02-23T01:53:25.370Z,47.39
2017-02-23T01:54:24.380Z,47.49
2017-02-23T01:55:24.421Z,47.1
2017-02-23T01:56:24.430Z,47.51
2017-02-23T01:57:25.110Z,47.49
2017-02-23T01:58:24.500Z,47.39
2017-02-23T01:59:24.912Z,47.29
2017-02-23T02:00:24.936Z,47.19
2017-02-23T02:01:24.965Z,47.39
2017-02-23T02:02:25.247Z,47.67
2017-02-23T02:03:25.019Z,47.49
2017-02-23T02:04:25.048Z,47.39
2017-02-23T02:05:25.080Z,47.1
2017-02-23T02:06:24.713Z,47.39
2017-02-23T02:07:25.378Z,47.1
2017-02-23T02:08:24.750Z,47.29
2017-02-23T02:09:25.183Z,47.1
2017-02-23T02:10:25.212Z,47.19
2017-02-23T02:11:25.237Z,47.39
2017-02-23T02:12:25.517Z,47.39
2017-02-23T02:13:25.302Z,47.19
2017-02-23T02:14:25.319Z,47.39
2017-02-23T02:15:24.960Z,47.39
2017-02-23T02:16:24.976Z,47.39
2017-02-23T02:17:25.660Z,47.67
2017-02-23T02:18:25.037Z,47.29
2017-02-23T02:19:25.455Z,47.49
2017-02-23T02:20:25.484Z,47.39
2017-02-23T02:21:25.516Z,47.29
2017-02-23T02:22:25.409Z,47.29
2017-02-23T02:23:25.170Z,47.29
2017-02-23T02:24:25.199Z,47.29
2017-02-23T02:25:25.620Z,47.49
2017-02-23T02:26:25.248Z,47.19
2017-02-23T02:27:25.528Z,47.39
2017-02-23T02:28:25.302Z,47.1
2017-02-23T02:29:25.331Z,47.19
2017-02-23T02:30:25.785Z,47.49
2017-02-23T02:31:25.794Z,47.39
2017-02-23T02:32:26.068Z,47.67
2017-02-23T02:33:25.842Z,47.39
2017-02-23T02:34:25.475Z,47.49
2017-02-23T02:35:25.895Z,47.19
2017-02-23T02:36:25.524Z,47.67
2017-02-23T02:37:25.953Z,47.58
2017-02-23T02:38:25.578Z,47.58
2017-02-23T02:39:25.608Z,47.39
2017-02-23T02:40:26.027Z,47.49
2017-02-23T02:41:26.053Z,47.67
2017-02-23T02:42:26.081Z,47.49
2017-02-23T02:43:25.718Z,47.49
2017-02-23T02:44:25.742Z,47.49
2017-02-23T02:45:26.163Z,47.49
2017-02-23T02:46:26.188Z,47.29
2017-02-23T02:47:25.821Z,47.29
2017-02-23T02:48:26.238Z,47.29
2017-02-23T02:49:26.282Z,47.49
2017-02-23T02:50:26.299Z,47.49
2017-02-23T02:51:26.339Z,47.29
2017-02-23T02:52:26.000Z,47.29
2017-02-23T02:53:26.380Z,47.39
2017-02-23T02:54:26.402Z,47.19
2017-02-23T02:55:26.434Z,47.49
2017-02-23T02:56:26.460Z,47.29
2017-02-23T02:57:26.493Z,47.29
2017-02-23T02:58:26.509Z,47.67
2017-02-23T02:59:26.534Z,47.58
2017-02-23T03:00:26.562Z,47.29
2017-02-23T03:01:26.196Z,47.49
2017-02-23T03:02:26.632Z,47.49
2017-02-23T03:03:26.649Z,47.49
2017-02-23T03:04:26.281Z,47.39
2017-02-23T03:05:26.703Z,47.19
2017-02-23T03:06:26.347Z,47.49
2017-02-23T03:07:26.760Z,47.29
2017-02-23T03:08:26.785Z,47.49
2017-02-23T03:09:26.814Z,47.29
2017-02-23T03:10:26.839Z,47.49
2017-02-23T03:11:26.871Z,47.49
2017-02-23T03:12:26.892Z,47.19
2017-02-23T03:13:26.525Z,47.58
2017-02-23T03:14:26.553Z,47.39
2017-02-23T03:15:26.971Z,47.29
2017-02-23T03:16:27.003Z,47.58
2017-02-23T03:17:26.632Z,47.67
2017-02-23T03:18:27.057Z,47.58
2017-02-23T03:19:26.685Z,47.67
2017-02-23T03:20:27.110Z,47.49
2017-02-23T03:21:26.738Z,47.67
2017-02-23T03:22:27.164Z,47.49
2017-02-23T03:23:26.796Z,47.29
2017-02-23T03:24:26.821Z,47.58
2017-02-23T03:25:27.246Z,47.39
2017-02-23T03:26:27.271Z,47.49
2017-02-23T03:27:27.300Z,47.29
2017-02-23T03:28:27.329Z,47.19
2017-02-23T03:29:26.951Z,47.27
2017-02-23T03:30:27.382Z,47.58
2017-02-23T03:31:27.406Z,47.67
2017-02-23T03:32:27.067Z,47.58
2017-02-23T03:33:27.064Z,47.39
2017-02-23T03:34:27.489Z,47.49
2017-02-23T03:35:27.113Z,47.39
2017-02-23T03:36:27.158Z,47.39
2017-02-23T03:37:27.579Z,47.49
2017-02-23T03:38:27.592Z,47.29
2017-02-23T03:39:27.625Z,47.29
2017-02-23T03:40:27.644Z,47.29
2017-02-23T03:41:27.282Z,47.39
2017-02-23T03:42:27.707Z,47.39
2017-02-23T03:43:27.335Z,47.29
2017-02-23T03:44:27.756Z,47.58
2017-02-23T03:45:27.801Z,47.49
2017-02-23T03:46:27.418Z,47.65
2017-02-23T03:47:27.839Z,47.65
2017-02-23T03:48:27.884Z,47.49
2017-02-23T03:49:27.889Z,47.58
2017-02-23T03:50:27.917Z,47.58
2017-02-23T03:51:27.553Z,47.27
2017-02-23T03:52:27.979Z,47.29
2017-02-23T03:53:28.006Z,47.17
2017-02-23T03:54:28.029Z,47.49
2017-02-23T03:55:28.061Z,47.49
2017-02-23T03:56:27.690Z,47.67
2017-02-23T03:57:28.111Z,47.29
2017-02-23T03:58:27.740Z,47.49
2017-02-23T03:59:28.160Z,47.49
2017-02-23T04:00:28.193Z,47.39
2017-02-23T04:01:27.813Z,47.46
2017-02-23T04:02:27.850Z,47.46
2017-02-23T04:03:27.880Z,47.29
2017-02-23T04:04:27.910Z,47.58
2017-02-23T04:05:27.933Z,47.39
2017-02-23T04:06:27.970Z,47.19
2017-02-23T04:07:28.380Z,47.49
2017-02-23T04:08:28.417Z,47.49
2017-02-23T04:09:28.440Z,47.27
2017-02-23T04:10:28.461Z,47.58
2017-02-23T04:11:28.489Z,47.49
2017-02-23T04:12:28.115Z,47.29
2017-02-23T04:13:28.795Z,47.19
2017-02-23T04:14:28.569Z,47.49
2017-02-23T04:15:28.597Z,47.49
2017-02-23T04:16:28.642Z,47.46
2017-02-23T04:17:28.255Z,47.17
2017-02-23T04:18:28.535Z,47.67
2017-02-23T04:19:28.716Z,47.29
2017-02-23T04:20:28.341Z,47.49
2017-02-23T04:21:28.762Z,47.29
2017-02-23T04:22:28.391Z,47.29
2017-02-23T04:23:29.064Z,47.49
2017-02-23T04:24:28.448Z,47.39
2017-02-23T04:25:28.865Z,47.58
2017-02-23T04:26:28.902Z,47.77
2017-02-23T04:27:28.922Z,47.19
2017-02-23T04:28:28.802Z,47.27
2017-02-23T04:29:28.580Z,47.67
2017-02-23T04:30:28.999Z,47.65
2017-02-23T04:31:28.633Z,47.67
2017-02-23T04:32:28.670Z,47.17
2017-02-23T04:33:29.335Z,47.29
2017-02-23T04:34:28.712Z,47.19
2017-02-23T04:35:28.740Z,47.29
2017-02-23T04:36:29.161Z,47.65
2017-02-23T04:37:28.801Z,47.58
2017-02-23T04:38:29.077Z,47.56
2017-02-23T04:39:28.847Z,47.65
2017-02-23T04:40:28.880Z,47.17
2017-02-23T04:41:29.301Z,47.17
2017-02-23T04:42:29.334Z,47.65
2017-02-23T04:43:29.607Z,47.36
2017-02-23T04:44:28.984Z,47.27
2017-02-23T04:45:29.420Z,47.17
2017-02-23T04:46:29.432Z,47.29
2017-02-23T04:47:29.457Z,47.17
2017-02-23T04:48:29.354Z,47.17
2017-02-23T04:49:29.123Z,47.46
2017-02-23T04:50:29.539Z,47.65
2017-02-23T04:51:29.180Z,47.46
2017-02-23T04:52:29.613Z,47.27
2017-02-23T04:53:29.489Z,47.56
2017-02-23T04:54:29.651Z,47.56
2017-02-23T04:55:29.675Z,47.65
2017-02-23T04:56:29.700Z,47.36
2017-02-23T04:57:29.344Z,47.65
2017-02-23T04:58:29.608Z,47.36
2017-02-23T04:59:29.782Z,47.27
2017-02-23T05:00:29.810Z,47.17
2017-02-23T05:01:29.848Z,47.17
2017-02-23T05:02:29.864Z,47.17
2017-02-23T05:03:29.745Z,47.17
2017-02-23T05:04:29.918Z,47.17
2017-02-23T05:05:29.950Z,47.17
2017-02-23T05:06:29.971Z,47.65
2017-02-23T05:07:29.596Z,47.56
2017-02-23T05:08:30.277Z,47.17
2017-02-23T05:09:30.041Z,47.56
2017-02-23T05:10:30.077Z,47.17
2017-02-23T05:11:30.102Z,47.17
2017-02-23T05:12:30.128Z,47.36
2017-02-23T05:13:30.412Z,47.17
2017-02-23T05:14:30.184Z,47.08
2017-02-23T05:15:30.209Z,47.17
2017-02-23T05:16:30.238Z,47.27
2017-02-23T05:17:29.870Z,47.65
2017-02-23T05:18:30.539Z,47.46
2017-02-23T05:19:30.332Z,47.46
2017-02-23T05:20:30.353Z,47.77
2017-02-23T05:21:30.386Z,47.46
2017-02-23T05:22:30.407Z,47.56
2017-02-23T05:23:30.032Z,47.27
2017-02-23T05:24:30.456Z,47.17
2017-02-23T05:25:30.481Z,47.56
2017-02-23T05:26:30.522Z,47.29
2017-02-23T05:27:30.139Z,46.98
2017-02-23T05:28:30.171Z,47.19
2017-02-23T05:29:30.187Z,47.19
2017-02-23T05:30:30.617Z,47.19
2017-02-23T05:31:30.245Z,47.19
2017-02-23T05:32:30.671Z,47.39
2017-02-23T05:33:30.704Z,47.29
2017-02-23T05:34:30.723Z,47.39
2017-02-23T05:35:30.348Z,47.29
2017-02-23T05:36:30.377Z,47
2017-02-23T05:37:30.806Z,47.29
2017-02-23T05:38:30.837Z,47.39
2017-02-23T05:39:30.859Z,47.29
2017-02-23T05:40:30.880Z,47.19
2017-02-23T05:41:30.913Z,47.29
2017-02-23T05:42:30.938Z,47.1
2017-02-23T05:43:30.579Z,47.19
2017-02-23T05:44:30.989Z,47.49
2017-02-23T05:45:31.019Z,47.39
2017-02-23T05:46:30.652Z,47.19
2017-02-23T05:47:31.078Z,47.58
2017-02-23T05:48:30.702Z,47.58
2017-02-23T05:49:31.126Z,47.77
2017-02-23T05:50:30.760Z,47.29
2017-02-23T05:51:30.793Z,48.25
2017-02-23T05:52:31.207Z,48.06
2017-02-23T05:53:31.234Z,47.97
2017-02-23T05:54:31.265Z,48.06
2017-02-23T05:55:31.291Z,47.97
2017-02-23T05:56:31.316Z,47.58
2017-02-23T05:57:31.353Z,47.67
2017-02-23T05:58:31.374Z,48.25
2017-02-23T05:59:31.411Z,48.06
2017-02-23T06:00:31.419Z,48.76
2017-02-23T06:01:31.055Z,48.64
2017-02-23T06:02:31.089Z,48.54
2017-02-23T06:03:31.505Z,48.25
2017-02-23T06:04:31.534Z,48.66
2017-02-23T06:05:31.175Z,48.08
2017-02-23T06:06:31.192Z,47.99
2017-02-23T06:07:31.212Z,48.28
2017-02-23T06:08:31.245Z,48.08
2017-02-23T06:09:31.522Z,47.6
2017-02-23T06:10:31.295Z,48.47
2017-02-23T06:11:31.720Z,48.28
2017-02-23T06:12:31.812Z,48.28
2017-02-23T06:13:31.777Z,48.57
2017-02-23T06:14:31.656Z,48.66
2017-02-23T06:15:31.831Z,48.57
2017-02-23T06:16:31.859Z,48.57
2017-02-23T06:17:31.485Z,48.57
2017-02-23T06:18:31.921Z,49.05
2017-02-23T06:19:31.805Z,48.57
2017-02-23T06:20:31.962Z,48.47
2017-02-23T06:21:32.006Z,48.57
2017-02-23T06:22:31.624Z,48.47
2017-02-23T06:23:32.045Z,48.47
2017-02-23T06:24:32.326Z,48.47
2017-02-23T06:25:32.101Z,48.76
2017-02-23T06:26:32.130Z,48.57
2017-02-23T06:27:31.763Z,48.57
2017-02-23T06:28:32.180Z,48.47
2017-02-23T06:29:32.461Z,48.76
2017-02-23T06:30:31.841Z,48.66
2017-02-23T06:31:31.882Z,48.57
2017-02-23T06:32:32.295Z,48.47
2017-02-23T06:33:31.932Z,48.47
2017-02-23T06:34:32.592Z,48.47
2017-02-23T06:35:32.372Z,48.66
2017-02-23T06:36:32.427Z,48.47
2017-02-23T06:37:32.426Z,48.47
2017-02-23T06:38:32.072Z,48.57
2017-02-23T06:39:32.732Z,48.57
2017-02-23T06:40:32.113Z,48.38
2017-02-23T06:41:32.138Z,48.28
2017-02-23T06:42:32.167Z,48.57
2017-02-23T06:43:32.196Z,48.47
2017-02-23T06:44:32.867Z,48.47
2017-02-23T06:45:32.673Z,48.28
2017-02-23T06:46:32.674Z,48.3
2017-02-23T06:47:32.699Z,48.38
2017-02-23T06:48:32.740Z,48.38
2017-02-23T06:49:33.006Z,48.38
2017-02-23T06:50:32.403Z,48.66
2017-02-23T06:51:32.409Z,48.11
2017-02-23T06:52:32.830Z,48.21
2017-02-23T06:53:32.862Z,48.79
2017-02-23T06:54:32.743Z,48.3
2017-02-23T06:55:32.536Z,48.4
2017-02-23T06:56:32.545Z,48.21
2017-02-23T06:57:32.586Z,48.4
2017-02-23T06:58:32.999Z,48.11
2017-02-23T06:59:32.879Z,47.92
2017-02-23T07:00:32.652Z,48.11
2017-02-23T07:01:32.680Z,48.01
2017-02-23T07:02:32.725Z,48.01
2017-02-23T07:03:33.138Z,48.01
2017-02-23T07:04:33.423Z,48.01
2017-02-23T07:05:33.201Z,47.92
2017-02-23T07:06:32.820Z,48.11
2017-02-23T07:07:33.245Z,48.3
2017-02-23T07:08:33.270Z,48.11
2017-02-23T07:09:33.558Z,48.11
2017-02-23T07:10:33.331Z,48.3
2017-02-23T07:11:33.360Z,48.01
2017-02-23T07:12:32.984Z,47.92
2017-02-23T07:13:33.013Z,47.82
2017-02-23T07:14:33.042Z,47.92
2017-02-23T07:15:33.066Z,47.72
2017-02-23T07:16:33.103Z,47.44
2017-02-23T07:17:33.124Z,47.53
2017-02-23T07:18:33.545Z,47.72
2017-02-23T07:19:33.574Z,47.72
2017-02-23T07:20:33.203Z,47.53
2017-02-23T07:21:33.631Z,47.65
2017-02-23T07:22:33.272Z,47.34
2017-02-23T07:23:33.680Z,47.34
2017-02-23T07:24:33.316Z,47.53
2017-02-23T07:25:33.348Z,47.34
2017-02-23T07:26:33.775Z,47.34
2017-02-23T07:27:33.827Z,47.53
2017-02-23T07:28:33.432Z,47.72
2017-02-23T07:29:33.457Z,47.72
2017-02-23T07:30:33.488Z,47.63
2017-02-23T07:31:33.502Z,47.53
2017-02-23T07:32:33.927Z,47.24
2017-02-23T07:33:33.956Z,47.45
2017-02-23T07:34:33.981Z,47.72
2017-02-23T07:35:34.017Z,47.63
2017-02-23T07:36:34.037Z,47.05
2017-02-23T07:37:34.067Z,47.24
2017-02-23T07:38:33.699Z,47.53
2017-02-23T07:39:33.724Z,47.05
2017-02-23T07:40:33.752Z,47.44
2017-02-23T07:41:34.169Z,47.14
2017-02-23T07:42:33.806Z,47.24
2017-02-23T07:43:34.231Z,47.24
2017-02-23T07:44:33.868Z,47.53
2017-02-23T07:45:33.900Z,47.14
2017-02-23T07:46:34.314Z,46.95
2017-02-23T07:47:34.347Z,47.05
2017-02-23T07:48:34.367Z,46.95
2017-02-23T07:49:34.016Z,47.24
2017-02-23T07:50:34.029Z,47.24
2017-02-23T07:51:34.060Z,47.24
2017-02-23T07:52:34.078Z,47.05
2017-02-23T07:53:34.502Z,47.24
2017-02-23T07:54:34.535Z,47.05
2017-02-23T07:55:34.164Z,47.14
2017-02-23T07:56:34.201Z,47.24
2017-02-23T07:57:34.610Z,47.05
2017-02-23T07:58:34.246Z,47.24
2017-02-23T07:59:34.675Z,47.05
2017-02-23T08:00:34.696Z,46.76
2017-02-23T08:01:34.740Z,47.05
2017-02-23T08:02:34.353Z,47.14
2017-02-23T08:03:34.789Z,47.34
2017-02-23T08:04:34.819Z,47.14
2017-02-23T08:05:34.835Z,47.05
2017-02-23T08:06:34.864Z,46.95
2017-02-23T08:07:34.493Z,47.34
2017-02-23T08:08:34.918Z,46.56
2017-02-23T08:09:34.555Z,47.14
2017-02-23T08:10:34.972Z,47.05
2017-02-23T08:11:34.608Z,47.14
2017-02-23T08:12:34.640Z,46.95
2017-02-23T08:13:34.661Z,47.05
2017-02-23T08:14:35.088Z,46.95
2017-02-23T08:15:35.359Z,46.95
2017-02-23T08:16:34.735Z,47.24
2017-02-23T08:17:35.169Z,47.24
2017-02-23T08:18:34.797Z,47.34
2017-02-23T08:19:35.238Z,46.28
2017-02-23T08:20:35.495Z,46.56
2017-02-23T08:21:34.880Z,46.76
2017-02-23T08:22:35.300Z,46.95
2017-02-23T08:23:35.354Z,47.24
2017-02-23T08:24:34.969Z,47.14
2017-02-23T08:25:35.235Z,47.05
2017-02-23T08:26:35.013Z,47.24
2017-02-23T08:27:35.439Z,47.05
2017-02-23T08:28:35.069Z,46.76
2017-02-23T08:29:35.098Z,46.47
2017-02-23T08:30:35.409Z,46.37
2017-02-23T08:31:35.551Z,46.18
2017-02-23T08:32:35.588Z,46.47
2017-02-23T08:33:35.605Z,46.76
2017-02-23T08:34:35.633Z,46.56
2017-02-23T08:35:35.961Z,46.18
2017-02-23T08:36:35.302Z,46.47
2017-02-23T08:37:35.315Z,46.35
2017-02-23T08:38:35.348Z,46.45
2017-02-23T08:39:35.385Z,46.64
2017-02-23T08:40:36.052Z,46.35
2017-02-23T08:41:35.431Z,46.35
2017-02-23T08:42:35.452Z,46.73
2017-02-23T08:43:35.876Z,46.55
2017-02-23T08:44:35.512Z,46.93
2017-02-23T08:45:36.183Z,46.93
2017-02-23T08:46:35.969Z,46.64
2017-02-23T08:47:36.000Z,46.73
2017-02-23T08:48:36.019Z,46.35
2017-02-23T08:49:35.648Z,46.55
2017-02-23T08:50:35.924Z,47.22
2017-02-23T08:51:36.094Z,47.03
2017-02-23T08:52:35.725Z,47.03
2017-02-23T08:53:36.151Z,47.22
2017-02-23T08:54:35.788Z,46.93
2017-02-23T08:55:36.476Z,47.03
2017-02-23T08:56:36.233Z,47.03
2017-02-23T08:57:36.264Z,47.12
2017-02-23T08:58:35.894Z,47.22
2017-02-23T08:59:35.923Z,47.03
2017-02-23T09:00:36.212Z,46.64
2017-02-23T09:01:35.985Z,46.83
2017-02-23T09:02:36.001Z,46.93
2017-02-23T09:03:36.426Z,47.03
2017-02-23T09:04:36.463Z,47.03
2017-02-23T09:05:36.735Z,47.03
2017-02-23T09:06:36.116Z,47.03
2017-02-23T09:07:36.141Z,47.03
2017-02-23T09:08:36.189Z,47.03
2017-02-23T09:09:36.194Z,46.93
2017-02-23T09:10:36.486Z,47.12
2017-02-23T09:11:36.658Z,47.41
2017-02-23T09:12:36.671Z,47.41
2017-02-23T09:13:36.317Z,47.03
2017-02-23T09:14:36.741Z,47.03
2017-02-23T09:15:37.015Z,47.41
2017-02-23T09:16:36.783Z,47.22
2017-02-23T09:17:36.808Z,47.22
2017-02-23T09:18:36.440Z,47.22
2017-02-23T09:19:36.469Z,47.31
2017-02-23T09:20:36.744Z,47.31
2017-02-23T09:21:36.521Z,47.22
2017-02-23T09:22:36.551Z,47.31
2017-02-23T09:23:36.972Z,47.22
2017-02-23T09:24:37.003Z,47.41
2017-02-23T09:25:37.281Z,47.22
2017-02-23T09:26:37.059Z,47.51
2017-02-23T09:27:37.084Z,47.03
2017-02-23T09:28:37.111Z,47.22
2017-02-23T09:29:37.135Z,47.41
2017-02-23T09:30:36.798Z,47.22
2017-02-23T09:31:36.795Z,47.51
2017-02-23T09:32:37.226Z,47.31
2017-02-23T09:33:37.247Z,47.03
2017-02-23T09:34:37.281Z,47.12
2017-02-23T09:35:37.305Z,47.03
2017-02-23T09:36:36.932Z,46.93
2017-02-23T09:37:37.354Z,47.31
2017-02-23T09:38:37.398Z,47.41
2017-02-23T09:39:37.430Z,47.31
2017-02-23T09:40:37.444Z,47.31
2017-02-23T09:41:37.465Z,47.03
2017-02-23T09:42:37.093Z,47.31
2017-02-23T09:43:37.530Z,47.12
2017-02-23T09:44:37.191Z,47.51
2017-02-23T09:45:37.571Z,47.12
2017-02-23T09:46:37.603Z,47.03
2017-02-23T09:47:37.629Z,47.31
2017-02-23T09:48:37.257Z,47.31
2017-02-23T09:49:37.686Z,46.93
2017-02-23T09:50:37.315Z,47.03
2017-02-23T09:51:37.344Z,46.73
2017-02-23T09:52:37.776Z,47.12
2017-02-23T09:53:37.397Z,47.12
2017-02-23T09:54:37.831Z,46.45
2017-02-23T09:55:37.849Z,46.55
2017-02-23T09:56:37.480Z,46.64
2017-02-23T09:57:37.508Z,46.15
2017-02-23T09:58:37.533Z,46.73
2017-02-23T09:59:37.961Z,46.64
2017-02-23T10:00:37.598Z,46.64
2017-02-23T10:01:37.616Z,46.73
2017-02-23T10:02:38.041Z,46.64
2017-02-23T10:03:38.070Z,46.35
2017-02-23T10:04:38.100Z,46.25
2017-02-23T10:05:38.123Z,46.45
2017-02-23T10:06:37.755Z,46.45
2017-02-23T10:07:38.179Z,46.64
2017-02-23T10:08:37.808Z,46.45
2017-02-23T10:09:38.229Z,46.45
2017-02-23T10:10:38.261Z,46.35
2017-02-23T10:11:37.892Z,46.45
2017-02-23T10:12:37.919Z,46.45
2017-02-23T10:13:38.344Z,46.45
2017-02-23T10:14:37.972Z,46.45
2017-02-23T10:15:38.397Z,46.35
2017-02-23T10:16:38.030Z,46.64
2017-02-23T10:17:38.459Z,46.45
2017-02-23T10:18:38.477Z,46.73
2017-02-23T10:19:38.528Z,46.35
2017-02-23T10:20:38.532Z,46.35
2017-02-23T10:21:38.570Z,46.45
2017-02-23T10:22:38.193Z,46.25
2017-02-23T10:23:38.623Z,45.77
2017-02-23T10:24:38.251Z,46.25
2017-02-23T10:25:38.689Z,46.15
2017-02-23T10:26:38.702Z,46.06
2017-02-23T10:27:38.721Z,46.06
2017-02-23T10:28:38.758Z,45.87
2017-02-23T10:29:38.423Z,45.97
2017-02-23T10:30:38.416Z,46.06
2017-02-23T10:31:38.438Z,45.87
2017-02-23T10:32:38.859Z,45.77
2017-02-23T10:33:38.902Z,45.97
2017-02-23T10:34:38.927Z,46.06
2017-02-23T10:35:38.956Z,46.06
2017-02-23T10:36:38.589Z,45.79
2017-02-23T10:37:39.022Z,46.25
2017-02-23T10:38:38.629Z,45.97
2017-02-23T10:39:38.662Z,46.06
2017-02-23T10:40:39.082Z,46.28
2017-02-23T10:41:39.364Z,45.97
2017-02-23T10:42:39.148Z,45.79
2017-02-23T10:43:38.769Z,45.97
2017-02-23T10:44:39.194Z,45.7
2017-02-23T10:45:38.823Z,45.89
2017-02-23T10:46:39.104Z,45.97
2017-02-23T10:47:39.276Z,46.28
2017-02-23T10:48:39.299Z,45.68
2017-02-23T10:49:38.929Z,46.06
2017-02-23T10:50:38.975Z,45.41
2017-02-23T10:51:39.239Z,46.15
2017-02-23T10:52:39.419Z,45.51
2017-02-23T10:53:39.049Z,45.51
2017-02-23T10:54:39.465Z,46.18
2017-02-23T10:55:39.501Z,45.77
2017-02-23T10:56:39.782Z,45.51
2017-02-23T10:57:39.551Z,45.7
2017-02-23T10:58:39.196Z,45.51
2017-02-23T10:59:39.229Z,45.6
2017-02-23T11:00:39.254Z,45.77
2017-02-23T11:01:39.921Z,45.89
2017-02-23T11:02:39.691Z,45.79
2017-02-23T11:03:39.721Z,45.99
2017-02-23T11:04:39.740Z,45.12
2017-02-23T11:05:39.781Z,45.21
2017-02-23T11:06:40.061Z,45.12
2017-02-23T11:07:39.430Z,45.31
2017-02-23T11:08:39.461Z,45.03
2017-02-23T11:09:39.500Z,45.21
2017-02-23T11:10:39.924Z,45.6
2017-02-23T11:11:39.789Z,45.21
2017-02-23T11:12:39.567Z,45.31
2017-02-23T11:13:39.604Z,45.31
2017-02-23T11:14:40.021Z,45.31
2017-02-23T11:15:40.054Z,45.21
2017-02-23T11:16:40.337Z,45.12
2017-02-23T11:17:40.123Z,45.79
2017-02-23T11:18:39.746Z,45.79
2017-02-23T11:19:40.177Z,45.12
2017-02-23T11:20:39.792Z,45.21
2017-02-23T11:21:40.472Z,45.21
2017-02-23T11:22:40.243Z,44.66
2017-02-23T11:23:39.874Z,44.66
2017-02-23T11:24:40.299Z,44.85
2017-02-23T11:25:39.932Z,44.27
2017-02-23T11:26:40.604Z,44.46
2017-02-23T11:27:39.985Z,44.56
2017-02-23T11:28:40.409Z,44.76
2017-02-23T11:29:40.059Z,44.85
2017-02-23T11:30:40.076Z,45.04
2017-02-23T11:31:40.752Z,44.76
2017-02-23T11:32:40.137Z,44.85
2017-02-23T11:33:40.149Z,44.46
2017-02-23T11:34:40.591Z,44.27
2017-02-23T11:35:40.623Z,44.54
2017-02-23T11:36:40.511Z,44.37
2017-02-23T11:37:40.661Z,44.85
2017-02-23T11:38:40.697Z,44.27
2017-02-23T11:39:40.722Z,44.64
2017-02-23T11:40:40.747Z,44.76
2017-02-23T11:41:41.023Z,44.85
2017-02-23T11:42:40.412Z,44.83
2017-02-23T11:43:40.829Z,44.64
2017-02-23T11:44:40.469Z,44.64
2017-02-23T11:45:40.879Z,44.85
2017-02-23T11:46:40.781Z,44.64
2017-02-23T11:47:40.940Z,44.54
2017-02-23T11:48:40.965Z,44.76
2017-02-23T11:49:41.009Z,44.18
2017-02-23T11:50:40.629Z,43.79
2017-02-23T11:51:41.298Z,44.18
2017-02-23T11:52:40.683Z,44.56
2017-02-23T11:53:40.708Z,43.98
2017-02-23T11:54:41.137Z,44.18
2017-02-23T11:55:40.764Z,44.27
2017-02-23T11:56:40.795Z,43.89
2017-02-23T11:57:41.219Z,43.7
2017-02-23T11:58:40.845Z,43.98
2017-02-23T11:59:40.886Z,43.89
2017-02-23T12:00:40.908Z,43.89
2017-02-23T12:01:41.337Z,43.98
2017-02-23T12:02:41.359Z,43.79
2017-02-23T12:03:41.387Z,43.98
2017-02-23T12:04:41.021Z,43.89
2017-02-23T12:05:41.047Z,44.18
2017-02-23T12:06:41.472Z,43.79
2017-02-23T12:07:41.498Z,43.41
2017-02-23T12:08:41.529Z,43.7
2017-02-23T12:09:41.158Z,43.89
2017-02-23T12:10:41.199Z,43.89
2017-02-23T12:11:41.216Z,44.18
2017-02-23T12:12:41.245Z,43.89
2017-02-23T12:13:41.665Z,43.98
2017-02-23T12:14:41.704Z,43.89
2017-02-23T12:15:41.324Z,43.41
2017-02-23T12:16:41.764Z,43.6
2017-02-23T12:17:41.385Z,43.79
2017-02-23T12:18:41.809Z,43.79
2017-02-23T12:19:41.435Z,43.98
2017-02-23T12:20:41.468Z,43.89
2017-02-23T12:21:41.890Z,43.79
2017-02-23T12:22:41.915Z,43.98
2017-02-23T12:23:41.554Z,44.18
2017-02-23T12:24:41.986Z,44.08
2017-02-23T12:25:41.610Z,43.7
2017-02-23T12:26:42.032Z,43.89
2017-02-23T12:27:42.056Z,44.08
2017-02-23T12:28:42.085Z,43.79
2017-02-23T12:29:42.120Z,43.7
2017-02-23T12:30:41.746Z,43.79
2017-02-23T12:31:41.779Z,43.6
2017-02-23T12:32:41.819Z,43.89
2017-02-23T12:33:41.839Z,43.79
2017-02-23T12:34:42.271Z,43.89
2017-02-23T12:35:42.285Z,44.37
2017-02-23T12:36:41.910Z,44.45
2017-02-23T12:37:42.344Z,44.27
2017-02-23T12:38:42.368Z,43.79
2017-02-23T12:39:42.399Z,43.7
2017-02-23T12:40:42.037Z,43.6
2017-02-23T12:41:42.454Z,43.89
2017-02-23T12:42:42.082Z,43.79
2017-02-23T12:43:42.111Z,43.89
2017-02-23T12:44:42.141Z,43.7
2017-02-23T12:45:42.565Z,43.5
2017-02-23T12:46:42.201Z,43.7
2017-02-23T12:47:42.475Z,43.7
2017-02-23T12:48:42.651Z,43.21
2017-02-23T12:49:42.676Z,43.79
2017-02-23T12:50:42.708Z,43.7
2017-02-23T12:51:42.341Z,43.5
2017-02-23T12:52:42.615Z,43.98
2017-02-23T12:53:42.403Z,43.5
2017-02-23T12:54:42.815Z,43.6